Time;durP1;ratioP1;P1;durP2;ratioP2;P2;SDS_P1;SDS_P2;PMS_P1;PMS_P2;Temp;Humidity;BMP_temperature;BMP_pressure;BME280_temperature;BME280_humidity;BME280_pressure;Samples;Min_cycle;Max_cycle;Signal;HPM_P1;HPM_P2
2021/12/21 00:01:22;;;;;;;48.20;21.00;;;1.20;99.90;;;;;;4973843;28;20766;-71
2021/12/21 00:03:48;;;;;;;44.65;19.42;;;1.20;99.90;;;;;;4972864;28;20023;-72
2021/12/21 00:06:14;;;;;;;36.70;16.40;;;1.20;99.90;;;;;;4973309;28;20101;-72
2021/12/21 00:08:39;;;;;;;27.85;11.70;;;1.20;99.90;;;;;;4972961;28;20050;-73
2021/12/21 00:11:05;;;;;;;26.13;12.48;;;1.10;99.90;;;;;;4973225;28;20122;-72
2021/12/21 00:23:39;;;;;;;;;;;1.20;99.90;;;;;;4970887;28;20110;-70
2021/12/21 00:26:13;;;;;;;29.65;12.32;;;1.20;99.90;;;;;;4972957;28;19983;-70
2021/12/21 00:28:52;;;;;;;30.10;13.18;;;1.20;99.90;;;;;;4972765;28;20138;-70
2021/12/21 00:31:18;;;;;;;24.27;10.40;;;1.20;99.90;;;;;;4979490;28;20045;-72
2021/12/21 00:33:46;;;;;;;37.85;14.32;;;1.20;99.90;;;;;;4972592;28;20033;-72
2021/12/21 00:36:14;;;;;;;21.08;9.68;;;1.20;99.90;;;;;;4970522;28;20019;-72
2021/12/21 00:38:40;;;;;;;28.25;11.45;;;1.20;99.90;;;;;;4972380;28;20065;-72
2021/12/21 00:41:06;;;;;;;22.10;8.70;;;1.30;99.90;;;;;;4972158;28;20450;-72
2021/12/21 00:43:33;;;;;;;19.27;9.60;;;1.30;99.90;;;;;;4972638;28;20098;-72
2021/12/21 00:45:58;;;;;;;16.70;7.95;;;1.30;99.90;;;;;;4972405;28;20098;-71
2021/12/21 00:48:29;;;;;;;22.92;9.95;;;1.40;99.90;;;;;;4972354;28;20105;-72
2021/12/21 00:50:59;;;;;;;21.70;10.25;;;1.40;99.90;;;;;;4970023;28;20039;-72
2021/12/21 00:53:26;;;;;;;27.83;10.68;;;1.40;99.90;;;;;;4972529;28;20556;-72
2021/12/21 00:55:52;;;;;;;20.15;9.60;;;1.40;99.90;;;;;;4972041;28;20420;-72
2021/12/21 00:58:19;;;;;;;25.13;8.98;;;1.40;99.90;;;;;;4972102;28;20027;-72
2021/12/21 01:00:45;;;;;;;26.05;11.23;;;1.40;99.90;;;;;;4972404;28;20038;-71
2021/12/21 01:03:13;;;;;;;27.35;12.85;;;1.40;99.90;;;;;;4969405;28;20014;-72
2021/12/21 01:05:51;;;;;;;30.55;13.50;;;1.40;99.90;;;;;;4971972;28;20107;-72
2021/12/21 01:08:22;;;;;;;31.63;11.00;;;1.40;99.90;;;;;;4979446;28;20046;-71
2021/12/21 01:13:31;;;;;;;37.00;15.02;;;1.40;99.90;;;;;;4972192;28;20459;-72
2021/12/21 01:16:12;;;;;;;42.78;16.10;;;1.40;99.90;;;;;;4970044;28;20030;-71
2021/12/21 01:18:52;;;;;;;42.67;16.70;;;1.40;99.90;;;;;;4970249;28;20019;-72
2021/12/21 01:21:22;;;;;;;29.33;13.20;;;1.40;99.90;;;;;;4970656;28;20030;-72
2021/12/21 01:28:58;;;;;;;171.85;56.58;;;1.40;99.90;;;;;;4972143;28;20085;-72
2021/12/21 01:31:53;;;;;;;43.58;16.25;;;1.40;99.90;;;;;;4971764;28;20031;-72
2021/12/21 01:34:35;;;;;;;46.97;18.27;;;1.30;99.90;;;;;;4971876;28;20037;-71
2021/12/21 01:37:22;;;;;;;47.35;18.35;;;1.30;99.90;;;;;;4971471;28;20423;-71
2021/12/21 01:39:57;;;;;;;53.08;22.13;;;1.30;99.90;;;;;;4971878;28;20035;-71
2021/12/21 01:50:37;;;;;;;35.15;16.42;;;1.20;99.90;;;;;;4971477;28;20123;-72
2021/12/21 01:53:03;;;;;;;28.40;12.00;;;1.20;99.90;;;;;;4972123;28;20035;-72
2021/12/21 01:55:29;;;;;;;33.13;14.80;;;1.20;99.90;;;;;;4971604;28;20118;-72
2021/12/21 01:57:55;;;;;;;24.02;9.57;;;1.10;99.90;;;;;;4971573;28;20026;-70
2021/12/21 02:00:21;;;;;;;24.08;10.65;;;1.10;99.90;;;;;;4971880;28;20041;-71
2021/12/21 02:02:47;;;;;;;35.50;14.60;;;1.10;99.90;;;;;;4971458;28;20503;-71
2021/12/21 02:05:13;;;;;;;25.73;10.98;;;1.10;99.90;;;;;;4971728;28;20027;-71
2021/12/21 02:07:39;;;;;;;28.25;9.77;;;1.10;99.90;;;;;;4971742;28;20062;-72
2021/12/21 02:10:06;;;;;;;24.40;10.20;;;1.00;99.90;;;;;;4971828;28;20063;-71
2021/12/21 02:12:32;;;;;;;33.85;13.60;;;1.00;99.90;;;;;;4971457;28;20469;-71
2021/12/21 02:15:00;;;;;;;24.73;10.50;;;0.90;99.90;;;;;;4971410;28;20386;-72
2021/12/21 02:20:39;;;;;;;16.52;8.63;;;0.90;99.90;;;;;;4971490;28;20031;-71
2021/12/21 02:28:22;;;;;;;22.15;8.27;;;0.80;99.90;;;;;;4971292;28;20027;-71
2021/12/21 02:30:53;;;;;;;22.25;9.63;;;0.80;99.90;;;;;;4971459;28;20034;-71
2021/12/21 02:33:20;;;;;;;25.17;10.45;;;0.70;99.90;;;;;;4971930;28;20431;-71
2021/12/21 02:35:46;;;;;;;23.33;8.75;;;0.70;99.90;;;;;;4971994;28;20087;-71
2021/12/21 02:38:12;;;;;;;19.65;8.63;;;0.60;99.90;;;;;;4972428;28;20031;-70
2021/12/21 02:40:38;;;;;;;16.98;8.80;;;0.60;99.90;;;;;;4971992;28;20023;-69
2021/12/21 02:43:05;;;;;;;20.75;9.05;;;0.60;99.90;;;;;;4971652;28;20030;-70
2021/12/21 02:45:31;;;;;;;19.02;9.43;;;0.60;99.90;;;;;;4971886;28;20500;-70
2021/12/21 02:47:57;;;;;;;23.08;9.98;;;0.50;99.90;;;;;;4971287;28;20035;-69
2021/12/21 02:50:23;;;;;;;24.15;10.02;;;0.50;99.90;;;;;;4970679;28;20055;-70
2021/12/21 02:52:51;;;;;;;30.45;12.32;;;0.50;99.90;;;;;;4971267;28;20038;-70
2021/12/21 02:55:17;;;;;;;27.83;12.10;;;0.40;99.90;;;;;;4971348;28;20381;-69
2021/12/21 02:57:43;;;;;;;29.02;11.32;;;0.40;99.90;;;;;;4971580;28;20023;-70
2021/12/21 03:00:10;;;;;;;23.08;10.45;;;0.40;99.90;;;;;;4971924;28;20100;-69
2021/12/21 03:02:36;;;;;;;21.52;8.82;;;0.40;99.90;;;;;;4971580;28;20113;-69
2021/12/21 03:05:03;;;;;;;18.75;8.25;;;0.40;99.90;;;;;;4971305;28;20450;-69
2021/12/21 03:10:29;;;;;;;19.88;9.00;;;0.40;99.90;;;;;;5050531;28;20065;-69
2021/12/21 03:15:29;;;;;;;27.27;10.02;;;0.30;99.90;;;;;;5050631;28;20021;-69
2021/12/21 03:17:56;;;;;;;25.15;11.02;;;0.30;99.90;;;;;;5050740;28;20384;-70
2021/12/21 03:20:24;;;;;;;23.88;11.10;;;0.30;99.90;;;;;;5050815;28;20472;-70
2021/12/21 03:22:51;;;;;;;22.85;9.25;;;0.30;99.90;;;;;;5050714;28;20041;-70
2021/12/21 03:25:18;;;;;;;20.95;9.27;;;0.30;99.90;;;;;;5050777;28;20037;-70
2021/12/21 03:27:44;;;;;;;20.45;8.18;;;0.30;99.90;;;;;;5050807;28;20460;-69
2021/12/21 03:30:12;;;;;;;17.45;7.38;;;0.30;99.90;;;;;;5050640;28;20040;-70
2021/12/21 03:32:38;;;;;;;18.08;8.85;;;0.20;99.90;;;;;;5050593;28;20037;-70
2021/12/21 03:35:05;;;;;;;18.30;9.13;;;0.20;99.90;;;;;;5050833;28;20111;-71
2021/12/21 03:37:32;;;;;;;18.20;8.73;;;0.20;99.90;;;;;;5050313;28;20049;-69
2021/12/21 03:40:00;;;;;;;17.83;9.05;;;0.20;99.90;;;;;;5050034;28;20052;-70
2021/12/21 03:42:27;;;;;;;22.75;10.55;;;0.20;99.90;;;;;;5050748;28;20539;-70
2021/12/21 03:44:53;;;;;;;23.20;10.30;;;0.20;99.90;;;;;;4996739;28;20031;-70
2021/12/21 03:47:21;;;;;;;22.00;11.63;;;0.20;99.90;;;;;;4971043;28;20027;-70
2021/12/21 03:52:19;;;;;;;23.60;9.38;;;0.20;99.90;;;;;;4970790;28;20089;-69
2021/12/21 03:54:47;;;;;;;25.38;10.30;;;0.20;99.90;;;;;;4971289;28;20473;-70
2021/12/21 03:57:13;;;;;;;19.42;10.35;;;0.20;99.90;;;;;;4970668;28;20035;-70
2021/12/21 03:59:43;;;;;;;20.45;9.10;;;0.20;99.90;;;;;;4973555;28;20489;-70
2021/12/21 04:02:11;;;;;;;16.77;7.63;;;0.20;99.90;;;;;;4974212;28;20474;-70
2021/12/21 04:04:41;;;;;;;19.13;8.63;;;0.10;99.90;;;;;;4973860;28;20541;-69
2021/12/21 04:07:07;;;;;;;21.95;8.02;;;0.10;99.90;;;;;;4974303;28;20057;-69
2021/12/21 04:09:33;;;;;;;15.18;7.55;;;0.10;99.90;;;;;;4974118;28;20113;-70
2021/12/21 04:12:00;;;;;;;13.43;6.95;;;0.10;99.90;;;;;;4973767;28;20037;-69
2021/12/21 04:14:28;;;;;;;21.52;10.30;;;0.10;99.90;;;;;;4973200;28;20504;-69
2021/12/21 04:16:54;;;;;;;21.00;11.77;;;0.10;99.90;;;;;;4973918;28;20039;-69
2021/12/21 04:19:21;;;;;;;25.88;13.38;;;0.10;99.90;;;;;;4974092;28;20465;-69
2021/12/21 04:21:47;;;;;;;30.08;15.32;;;0.10;99.90;;;;;;4974098;28;20031;-69
2021/12/21 04:24:13;;;;;;;47.25;21.05;;;0.10;99.90;;;;;;4974126;28;20031;-69
2021/12/21 04:26:39;;;;;;;48.13;22.05;;;0.10;99.90;;;;;;4973874;28;20486;-70
2021/12/21 04:29:05;;;;;;;53.17;20.63;;;0.10;99.90;;;;;;4974014;28;20031;-70
2021/12/21 04:31:30;;;;;;;44.40;20.25;;;0.10;99.90;;;;;;4973752;28;20034;-69
2021/12/21 04:33:56;;;;;;;49.50;21.77;;;0.10;99.90;;;;;;4974221;28;20027;-70
2021/12/21 04:36:22;;;;;;;43.97;17.63;;;0.10;99.90;;;;;;4973748;28;20106;-69
2021/12/21 04:38:50;;;;;;;44.55;19.00;;;0.10;99.90;;;;;;4973526;28;20822;-69
2021/12/21 04:41:22;;;;;;;39.47;16.65;;;0.10;99.90;;;;;;4973947;28;20034;-70
2021/12/21 04:43:50;;;;;;;43.70;17.48;;;0.10;99.90;;;;;;4974164;28;20034;-69
2021/12/21 04:46:16;;;;;;;31.05;14.73;;;0.10;99.90;;;;;;4973647;28;20062;-69
2021/12/21 04:48:41;;;;;;;25.65;11.75;;;0.10;99.90;;;;;;4972902;28;20077;-69
2021/12/21 04:51:07;;;;;;;26.13;10.52;;;0.10;99.90;;;;;;4973320;28;20105;-69
2021/12/21 04:53:33;;;;;;;25.00;11.05;;;0.00;99.90;;;;;;4973557;28;20058;-69
2021/12/21 04:55:59;;;;;;;28.70;13.10;;;0.00;99.90;;;;;;4973332;28;20027;-69
2021/12/21 04:58:25;;;;;;;41.58;16.20;;;0.00;99.90;;;;;;4973396;28;20075;-72
2021/12/21 05:00:51;;;;;;;35.50;13.95;;;0.00;99.90;;;;;;4972627;28;20039;-69
2021/12/21 05:03:18;;;;;;;40.85;18.58;;;0.10;99.90;;;;;;4973279;28;20065;-70
2021/12/21 05:05:43;;;;;;;45.67;19.70;;;0.00;99.90;;;;;;4973181;28;20080;-70
2021/12/21 05:08:12;;;;;;;44.17;18.42;;;0.00;99.90;;;;;;4972171;28;20027;-70
2021/12/21 05:10:50;;;;;;;49.08;19.77;;;0.00;99.90;;;;;;4973203;28;20081;-70
2021/12/21 05:13:18;;;;;;;43.33;20.27;;;0.00;99.90;;;;;;4953944;29;20079;-70
2021/12/21 05:15:44;;;;;;;59.75;28.45;;;0.00;99.90;;;;;;4953801;29;20031;-70
2021/12/21 05:18:11;;;;;;;59.92;27.85;;;0.00;99.90;;;;;;4971554;28;20030;-70
2021/12/21 05:20:38;;;;;;;60.97;29.42;;;-0.10;99.90;;;;;;4973066;28;20038;-70
2021/12/21 05:23:04;;;;;;;54.47;23.45;;;-0.10;99.90;;;;;;4972623;28;20417;-70
2021/12/21 05:25:30;;;;;;;64.65;27.13;;;-0.10;99.90;;;;;;4972849;28;20384;-70
2021/12/21 05:27:56;;;;;;;61.75;27.73;;;-0.10;99.90;;;;;;4972280;28;20034;-69
2021/12/21 05:30:26;;;;;;;62.92;25.27;;;-0.10;99.90;;;;;;4972461;28;20488;-70
2021/12/21 05:32:53;;;;;;;74.15;27.52;;;-0.10;99.90;;;;;;4971746;28;20043;-70
2021/12/21 05:35:20;;;;;;;64.72;26.70;;;-0.10;99.90;;;;;;4972158;28;20023;-70
2021/12/21 05:37:48;;;;;;;52.85;24.10;;;-0.10;99.90;;;;;;4971607;28;20485;-71
2021/12/21 05:40:16;;;;;;;49.22;22.95;;;-0.20;99.90;;;;;;4972338;28;20018;-72
2021/12/21 05:42:46;;;;;;;43.35;20.73;;;-0.20;99.90;;;;;;4972370;28;20058;-69
2021/12/21 05:45:14;;;;;;;48.28;20.40;;;-0.10;99.90;;;;;;4972684;28;20436;-70
2021/12/21 05:47:40;;;;;;;74.22;32.17;;;-0.20;99.90;;;;;;4970694;28;20254;-70
2021/12/21 05:50:09;;;;;;;78.28;32.38;;;-0.20;99.90;;;;;;4970973;28;20112;-70
2021/12/21 05:52:36;;;;;;;73.50;28.35;;;-0.20;99.90;;;;;;4972454;28;20039;-70
2021/12/21 05:55:03;;;;;;;142.68;45.58;;;-0.20;99.90;;;;;;4973110;28;20027;-70
2021/12/21 05:57:29;;;;;;;77.38;25.85;;;-0.20;99.90;;;;;;4972810;28;20023;-70
2021/12/21 05:59:55;;;;;;;95.00;35.28;;;-0.10;99.90;;;;;;4973104;28;20523;-70
2021/12/21 06:02:21;;;;;;;136.48;57.45;;;-0.20;99.90;;;;;;4972853;28;20027;-70
2021/12/21 06:04:48;;;;;;;96.93;46.00;;;-0.20;99.90;;;;;;4972736;28;20489;-70
2021/12/21 06:07:13;;;;;;;61.83;28.10;;;-0.20;99.90;;;;;;4973027;28;20056;-70
2021/12/21 06:09:41;;;;;;;39.70;19.45;;;-0.20;99.90;;;;;;4971609;28;20042;-70
2021/12/21 06:12:18;;;;;;;41.47;18.30;;;-0.20;99.90;;;;;;4971072;28;20035;-70
2021/12/21 06:22:47;;;;;;;82.78;30.83;;;-0.20;99.90;;;;;;4972142;28;20042;-70
2021/12/21 06:25:53;;;;;;;86.13;31.67;;;-0.20;99.90;;;;;;4972058;28;20038;-70
2021/12/21 06:28:11;;;;;;;57.88;24.33;;;-0.20;99.90;;;;;;4974873;28;20039;-70
2021/12/21 06:30:38;;;;;;;;;;;-0.20;99.90;;;;;;4971629;28;20087;-70
2021/12/21 06:33:04;;;;;;;56.97;24.88;;;-0.20;99.90;;;;;;4971870;28;19953;-70
2021/12/21 06:35:31;;;;;;;61.63;25.75;;;-0.20;99.90;;;;;;4972037;28;20023;-70
2021/12/21 06:37:57;;;;;;;63.88;26.58;;;-0.20;99.90;;;;;;4972217;28;20019;-70
2021/12/21 06:40:24;;;;;;;62.80;28.58;;;-0.20;99.90;;;;;;4972156;28;20030;-70
2021/12/21 06:42:51;;;;;;;57.95;24.15;;;-0.20;99.90;;;;;;4972558;28;20496;-70
2021/12/21 06:45:32;;;;;;;64.60;29.83;;;-0.10;99.90;;;;;;4972111;28;20038;-70
2021/12/21 06:53:27;;;;;;;73.80;26.13;;;0.00;99.90;;;;;;4971818;28;20077;-70
2021/12/21 06:55:54;;;;;;;69.55;22.98;;;0.00;99.90;;;;;;4972314;28;20058;-70
2021/12/21 06:58:20;;;;;;;78.18;27.63;;;0.10;99.90;;;;;;4972750;28;20035;-71
2021/12/21 07:00:47;;;;;;;75.57;25.67;;;0.10;99.90;;;;;;4971976;28;20518;-70
2021/12/21 07:03:13;;;;;;;76.07;24.80;;;0.20;99.90;;;;;;4971073;28;20417;-70
2021/12/21 07:05:40;;;;;;;83.95;27.40;;;0.50;99.90;;;;;;4971821;28;20054;-73
2021/12/21 07:08:11;;;;;;;70.85;29.25;;;0.90;99.90;;;;;;4971953;28;20458;-73
2021/12/21 07:10:39;;;;;;;73.32;33.10;;;1.20;99.90;;;;;;4971915;28;20019;-73
2021/12/21 07:18:34;;;;;;;40.78;19.90;;;1.50;99.90;;;;;;4972092;28;20076;-73
2021/12/21 07:21:01;;;;;;;29.63;14.85;;;1.80;99.90;;;;;;4971868;28;20042;-73
2021/12/21 07:23:27;;;;;;;26.52;13.02;;;1.90;99.90;;;;;;4971758;28;20053;-73
2021/12/21 07:25:54;;;;;;;29.90;15.52;;;2.00;99.90;;;;;;4971842;28;20034;-73
2021/12/21 07:28:20;;;;;;;31.30;17.05;;;2.00;99.90;;;;;;4971616;28;20207;-73
2021/12/21 07:30:47;;;;;;;40.25;17.25;;;2.10;99.90;;;;;;4971780;28;20031;-73
2021/12/21 07:33:14;;;;;;;47.85;21.02;;;2.10;99.90;;;;;;4972161;28;20084;-73
2021/12/21 07:35:40;;;;;;;66.47;26.88;;;2.10;99.90;;;;;;4974630;28;20027;-73
2021/12/21 07:38:06;;;;;;;64.00;25.77;;;2.20;99.90;;;;;;4974926;28;20038;-73
2021/12/21 07:40:32;;;;;;;51.65;22.38;;;2.30;99.90;;;;;;4974738;28;20023;-73
2021/12/21 07:43:00;;;;;;;48.85;22.23;;;2.40;99.90;;;;;;4974834;28;20023;-71
2021/12/21 07:45:27;;;;;;;52.22;23.73;;;2.50;99.90;;;;;;4974947;28;20023;-71
2021/12/21 07:47:53;;;;;;;54.30;23.73;;;2.40;99.90;;;;;;4975251;28;20449;-70
2021/12/21 07:50:20;;;;;;;38.92;14.95;;;2.40;99.90;;;;;;4974744;28;20027;-71
2021/12/21 07:52:46;;;;;;;37.25;17.77;;;2.20;99.90;;;;;;4974729;28;20027;-71
2021/12/21 07:55:12;;;;;;;36.78;17.70;;;2.20;99.90;;;;;;4974533;28;20031;-71
2021/12/21 07:57:38;;;;;;;34.60;17.42;;;2.40;99.90;;;;;;4974382;28;20022;-71
2021/12/21 08:00:06;;;;;;;60.17;27.35;;;2.60;99.90;;;;;;4974515;28;20030;-71
2021/12/21 08:02:33;;;;;;;36.22;17.05;;;2.70;99.90;;;;;;4974725;28;20062;-71
2021/12/21 08:04:59;;;;;;;38.65;18.88;;;2.60;99.90;;;;;;4974246;28;20031;-71
2021/12/21 08:07:32;;;;;;;35.08;16.13;;;2.60;99.90;;;;;;4974617;28;20525;-71
2021/12/21 08:10:06;;;;;;;23.73;11.05;;;2.60;99.90;;;;;;4974468;28;20210;-71
2021/12/21 08:12:32;;;;;;;57.67;24.48;;;2.40;99.90;;;;;;4974400;28;20485;-71
2021/12/21 08:14:58;;;;;;;50.75;16.88;;;2.40;99.90;;;;;;4974668;28;20039;-71
2021/12/21 08:17:23;;;;;;;34.08;15.45;;;2.40;99.90;;;;;;4974573;28;20029;-72
2021/12/21 08:19:49;;;;;;;45.25;19.60;;;2.60;99.90;;;;;;4974099;28;20386;-72
2021/12/21 08:22:15;;;;;;;59.45;25.58;;;2.80;99.90;;;;;;4974465;28;20457;-71
2021/12/21 08:24:43;;;;;;;65.60;25.45;;;2.70;99.90;;;;;;4973006;28;20450;-71
2021/12/21 08:27:09;;;;;;;80.63;28.67;;;2.60;99.90;;;;;;4974160;28;20023;-72
2021/12/21 08:29:35;;;;;;;80.45;27.13;;;2.60;99.90;;;;;;4974083;28;20035;-71
2021/12/21 08:32:00;;;;;;;56.65;21.08;;;2.50;99.90;;;;;;4974328;28;20031;-71
2021/12/21 08:34:26;;;;;;;37.47;16.27;;;2.40;99.90;;;;;;4973845;28;20102;-72
2021/12/21 08:36:53;;;;;;;48.38;20.98;;;2.40;99.90;;;;;;4974286;28;20031;-72
2021/12/21 08:39:23;;;;;;;65.22;23.13;;;2.50;99.90;;;;;;4974132;28;20088;-72
2021/12/21 08:41:55;;;;;;;47.00;18.85;;;2.70;99.90;;;;;;4973867;28;20099;-72
2021/12/21 08:44:25;;;;;;;31.65;13.75;;;2.80;99.90;;;;;;4973286;28;20401;-72
2021/12/21 08:46:52;;;;;;;29.38;12.40;;;2.70;99.90;;;;;;4974150;28;20037;-72
2021/12/21 08:49:18;;;;;;;30.60;13.77;;;2.90;99.90;;;;;;4973791;28;20494;-73
2021/12/21 08:51:44;;;;;;;73.55;25.67;;;2.90;99.90;;;;;;4973705;28;20078;-72
2021/12/21 08:54:11;;;;;;;49.85;21.95;;;3.10;99.90;;;;;;4973609;28;20030;-72
2021/12/21 08:56:37;;;;;;;33.10;15.55;;;3.10;99.90;;;;;;4973802;28;20085;-72
2021/12/21 08:59:02;;;;;;;31.27;11.77;;;3.10;99.90;;;;;;4973870;28;20478;-73
2021/12/21 09:01:28;;;;;;;33.17;13.70;;;3.00;99.90;;;;;;4973332;28;20038;-73
2021/12/21 09:03:55;;;;;;;32.42;13.48;;;3.10;99.90;;;;;;4970178;28;20098;-72
2021/12/21 09:06:23;;;;;;;28.40;12.05;;;3.20;99.90;;;;;;4973429;28;20031;-72
2021/12/21 09:08:49;;;;;;;29.40;14.30;;;3.20;99.90;;;;;;4973529;28;20042;-73
2021/12/21 09:11:15;;;;;;;54.63;21.27;;;3.30;99.90;;;;;;4973454;28;20031;-72
2021/12/21 09:13:40;;;;;;;53.00;22.13;;;3.40;99.90;;;;;;4971542;28;20138;-72
2021/12/21 09:16:06;;;;;;;48.75;23.08;;;3.50;99.90;;;;;;4972475;28;20045;-72
2021/12/21 09:18:32;;;;;;;52.00;25.08;;;3.40;99.90;;;;;;4973355;28;20027;-72
2021/12/21 09:20:58;;;;;;;52.70;22.45;;;3.20;99.90;;;;;;4973536;28;20381;-73
2021/12/21 09:23:24;;;;;;;16.40;7.32;;;3.50;99.90;;;;;;4972485;28;20377;-72
2021/12/21 09:25:50;;;;;;;29.05;12.82;;;3.70;99.90;;;;;;4972562;28;20038;-73
2021/12/21 09:28:16;;;;;;;24.27;13.80;;;4.20;99.90;;;;;;4969118;28;20434;-73
2021/12/21 09:30:42;;;;;;;32.58;14.85;;;3.70;99.90;;;;;;4972789;28;20149;-73
2021/12/21 09:33:07;;;;;;;35.45;15.25;;;3.80;99.90;;;;;;4972905;28;20039;-72
2021/12/21 09:35:33;;;;;;;27.58;12.20;;;3.30;99.90;;;;;;4973062;28;20037;-73
2021/12/21 09:37:59;;;;;;;38.17;17.13;;;3.80;99.90;;;;;;4973227;28;20038;-71
2021/12/21 09:40:28;;;;;;;30.80;14.20;;;4.70;99.90;;;;;;4972373;28;20442;-72
2021/12/21 09:42:55;;;;;;;51.92;21.40;;;4.40;99.90;;;;;;4972766;28;20385;-72
2021/12/21 09:45:21;;;;;;;21.80;9.20;;;4.50;99.90;;;;;;4971955;28;20055;-72
2021/12/21 09:47:49;;;;;;;52.95;20.75;;;4.20;99.90;;;;;;4971734;28;20061;-72
2021/12/21 09:50:17;;;;;;;52.05;21.67;;;4.40;99.90;;;;;;4972487;28;20027;-72
2021/12/21 09:52:43;;;;;;;82.70;34.40;;;5.00;99.90;;;;;;4972440;28;20045;-73
2021/12/21 09:55:12;;;;;;;82.97;35.25;;;5.90;99.90;;;;;;4965371;28;20444;-72
2021/12/21 09:57:38;;;;;;;84.22;38.15;;;5.30;99.50;;;;;;4971767;28;20027;-72
2021/12/21 10:00:07;;;;;;;16.13;9.05;;;6.20;98.00;;;;;;4971154;28;20030;-73
2021/12/21 10:02:35;;;;;;;50.67;22.75;;;5.10;96.10;;;;;;4971737;28;20026;-73
2021/12/21 10:05:06;;;;;;;20.90;9.27;;;4.50;97.80;;;;;;4971276;28;20393;-74
2021/12/21 10:07:34;;;;;;;23.58;11.02;;;5.40;98.90;;;;;;4972405;28;20101;-73
2021/12/21 10:10:16;;;;;;;48.85;21.30;;;5.00;99.10;;;;;;4972516;28;20060;-73
2021/12/21 10:12:45;;;;;;;22.95;9.05;;;5.50;98.00;;;;;;4971926;28;20039;-73
2021/12/21 10:15:15;;;;;;;22.05;8.77;;;6.00;96.30;;;;;;4972070;28;20492;-72
2021/12/21 10:17:52;;;;;;;51.38;21.50;;;5.50;96.00;;;;;;4971969;28;20023;-73
2021/12/21 10:20:41;;;;;;;28.25;14.95;;;5.00;97.40;;;;;;4972132;28;20057;-73
2021/12/21 10:23:17;;;;;;;25.08;12.43;;;5.30;96.60;;;;;;4972526;28;20062;-73
2021/12/21 10:25:57;;;;;;;24.17;12.73;;;7.00;95.70;;;;;;4972293;28;20023;-73
2021/12/21 10:28:40;;;;;;;36.45;19.02;;;8.10;92.90;;;;;;4972544;28;20027;-73
2021/12/21 10:31:12;;;;;;;27.45;10.77;;;8.40;90.20;;;;;;4972586;28;20035;-72
2021/12/21 10:33:43;;;;;;;30.63;15.02;;;8.50;88.10;;;;;;4972522;28;20061;-73
2021/12/21 10:36:11;;;;;;;20.85;11.23;;;8.60;87.20;;;;;;4972157;28;20077;-73
2021/12/21 10:38:52;;;;;;;22.50;11.10;;;6.50;88.70;;;;;;4972083;28;20034;-73
2021/12/21 10:41:21;;;;;;;21.25;12.65;;;5.80;90.90;;;;;;4972503;28;20481;-72
2021/12/21 10:44:05;;;;;;;30.20;14.25;;;5.20;91.80;;;;;;4972188;28;20040;-73
2021/12/21 10:46:33;;;;;;;32.38;17.88;;;4.90;93.70;;;;;;4971849;28;20042;-72
2021/12/21 10:49:08;;;;;;;18.85;9.63;;;4.60;94.60;;;;;;4972310;28;20418;-72
2021/12/21 10:51:36;;;;;;;30.13;15.45;;;4.30;94.90;;;;;;4971626;28;20054;-73
2021/12/21 10:54:02;;;;;;;30.25;14.75;;;4.20;96.40;;;;;;4972447;28;20462;-73
2021/12/21 10:56:28;;;;;;;26.02;11.43;;;4.20;97.60;;;;;;4972617;28;20424;-73
2021/12/21 10:58:55;;;;;;;30.65;13.43;;;3.80;97.90;;;;;;4972270;28;20034;-73
2021/12/21 11:01:27;;;;;;;33.13;14.57;;;4.20;99.00;;;;;;4971765;28;20057;-72
2021/12/21 11:03:56;;;;;;;23.10;11.63;;;6.10;96.40;;;;;;4971827;28;20031;-73
2021/12/21 11:06:33;;;;;;;23.25;10.05;;;6.40;93.30;;;;;;4972320;28;20034;-73
2021/12/21 11:09:04;;;;;;;29.52;13.60;;;5.30;93.30;;;;;;4975715;28;20117;-73
2021/12/21 11:11:43;;;;;;;17.60;8.10;;;5.00;94.30;;;;;;4975370;28;20061;-72
2021/12/21 11:14:15;;;;;;;28.98;14.60;;;5.90;93.50;;;;;;4975524;28;20027;-73
2021/12/21 11:16:49;;;;;;;23.13;11.90;;;5.80;93.70;;;;;;4975427;28;20062;-73
2021/12/21 11:19:17;;;;;;;22.77;11.25;;;5.70;92.80;;;;;;4975053;28;20041;-73
2021/12/21 11:21:45;;;;;;;25.15;12.15;;;5.80;92.90;;;;;;4975144;28;20106;-72
2021/12/21 11:24:20;;;;;;;26.13;12.63;;;6.30;93.40;;;;;;4975037;28;20031;-72
2021/12/21 11:26:48;;;;;;;24.73;12.18;;;6.70;92.40;;;;;;4975191;28;20114;-72
2021/12/21 11:29:17;;;;;;;29.45;13.43;;;6.70;91.20;;;;;;4975149;28;20523;-72
2021/12/21 11:31:47;;;;;;;27.65;14.20;;;7.00;90.70;;;;;;4974619;28;20035;-72
2021/12/21 11:34:18;;;;;;;36.47;16.65;;;6.40;90.50;;;;;;4975093;28;20035;-73
2021/12/21 11:39:31;;;;;;;30.52;15.50;;;5.20;92.80;;;;;;4974975;28;20081;-72
2021/12/21 11:42:00;;;;;;;31.67;14.75;;;5.60;93.30;;;;;;4974866;28;20041;-72
2021/12/21 11:44:47;;;;;;;29.17;13.25;;;5.50;92.70;;;;;;4974726;28;20026;-72
2021/12/21 11:47:17;;;;;;;37.40;17.02;;;5.40;93.00;;;;;;4974128;28;20110;-72
2021/12/21 11:49:45;;;;;;;40.35;18.98;;;4.70;93.70;;;;;;4974047;28;20023;-73
2021/12/21 11:52:16;;;;;;;36.33;18.13;;;4.70;94.10;;;;;;4974171;28;20058;-72
2021/12/21 11:54:54;;;;;;;25.25;11.48;;;4.60;94.60;;;;;;4974221;28;20071;-72
2021/12/21 11:57:46;;;;;;;32.17;14.55;;;4.50;94.90;;;;;;4973844;28;20209;-72
2021/12/21 12:00:33;;;;;;;12.67;6.83;;;4.60;95.10;;;;;;4973808;28;20030;-72
2021/12/21 12:03:18;;;;;;;34.97;21.10;;;4.50;94.20;;;;;;4973795;28;20765;-72
2021/12/21 12:06:00;;;;;;;126.85;78.10;;;4.50;95.10;;;;;;4973816;28;20039;-71
2021/12/21 12:08:40;;;;;;;30.75;13.75;;;4.50;95.80;;;;;;4973901;28;20030;-72
2021/12/21 12:11:06;;;;;;;40.25;23.42;;;4.20;95.40;;;;;;4973299;28;20034;-72
2021/12/21 12:13:32;;;;;;;25.30;12.85;;;3.90;96.60;;;;;;4973364;28;20385;-72
2021/12/21 12:15:59;;;;;;;40.92;24.92;;;3.80;96.90;;;;;;4973614;28;20066;-72
2021/12/21 12:18:37;;;;;;;54.97;33.15;;;3.70;97.70;;;;;;4973601;28;20026;-72
2021/12/21 12:21:21;;;;;;;61.63;33.05;;;3.70;98.50;;;;;;4972883;28;20513;-72
2021/12/21 12:23:55;;;;;;;60.83;24.10;;;3.70;99.10;;;;;;4973388;28;20031;-72
2021/12/21 12:26:29;;;;;;;34.08;16.83;;;3.70;98.90;;;;;;4973777;28;20049;-72
2021/12/21 12:28:58;;;;;;;30.95;17.73;;;3.80;99.50;;;;;;4972974;28;20110;-72
2021/12/21 12:31:31;;;;;;;13.30;6.63;;;3.80;99.90;;;;;;4973118;28;20485;-72
2021/12/21 12:33:57;;;;;;;31.77;12.55;;;3.80;99.90;;;;;;4973231;28;20030;-72
2021/12/21 12:36:39;;;;;;;21.52;10.05;;;3.90;99.90;;;;;;4972989;28;20026;-73
2021/12/21 12:39:07;;;;;;;38.50;14.65;;;3.90;99.90;;;;;;4973270;28;20041;-72
2021/12/21 12:41:44;;;;;;;26.60;13.25;;;3.90;99.90;;;;;;4973021;28;20027;-72
2021/12/21 12:44:21;;;;;;;15.45;8.55;;;3.80;99.90;;;;;;4973642;28;20038;-72
2021/12/21 12:46:58;;;;;;;36.25;15.52;;;3.80;99.90;;;;;;4973109;28;20023;-73
2021/12/21 12:49:27;;;;;;;24.40;9.80;;;3.80;99.70;;;;;;4973237;28;20030;-72
2021/12/21 12:52:06;;;;;;;273.98;83.05;;;3.70;99.90;;;;;;4972499;28;20059;-73
2021/12/21 12:54:44;;;;;;;37.00;15.02;;;3.80;99.90;;;;;;4973663;28;20031;-72
2021/12/21 12:57:22;;;;;;;40.33;18.30;;;3.70;99.90;;;;;;4972796;28;20399;-72
2021/12/21 12:59:58;;;;;;;60.80;24.08;;;3.70;99.90;;;;;;4972602;28;20088;-72
2021/12/21 13:02:25;;;;;;;38.30;16.08;;;3.50;99.90;;;;;;4972877;28;20377;-72
2021/12/21 13:04:51;;;;;;;49.13;21.80;;;3.40;99.90;;;;;;4972720;28;20057;-72
2021/12/21 13:07:24;;;;;;;42.33;18.80;;;3.40;99.90;;;;;;4973174;28;20384;-72
2021/12/21 13:09:50;;;;;;;50.22;23.20;;;3.40;99.90;;;;;;4972679;28;20035;-73
2021/12/21 13:12:16;;;;;;;36.20;17.23;;;3.40;99.90;;;;;;4972710;28;20492;-72
2021/12/21 13:14:52;;;;;;;39.83;17.10;;;3.30;99.90;;;;;;4972902;28;20058;-72
2021/12/21 13:17:18;;;;;;;45.67;20.05;;;3.30;99.90;;;;;;4973166;28;20110;-72
2021/12/21 13:19:44;;;;;;;64.28;26.67;;;3.20;99.90;;;;;;4972814;28;20444;-72
2021/12/21 13:22:10;;;;;;;61.10;24.58;;;3.20;99.90;;;;;;4972847;28;20038;-72
2021/12/21 13:24:42;;;;;;;53.17;22.13;;;3.20;99.90;;;;;;4972884;28;20087;-72
2021/12/21 13:27:12;;;;;;;42.13;18.08;;;3.20;99.90;;;;;;4972900;28;20138;-73
2021/12/21 13:29:38;;;;;;;63.53;23.17;;;3.20;99.90;;;;;;4972820;28;20035;-73
2021/12/21 13:32:09;;;;;;;49.25;18.00;;;3.10;99.90;;;;;;4970731;28;20035;-72
2021/12/21 13:34:37;;;;;;;85.45;35.17;;;3.10;99.90;;;;;;4972494;28;20038;-73
2021/12/21 13:37:07;;;;;;;46.42;19.52;;;3.20;99.90;;;;;;4972357;28;20125;-72
2021/12/21 13:39:38;;;;;;;102.35;43.50;;;3.10;99.90;;;;;;4972355;28;20031;-72
2021/12/21 13:42:19;;;;;;;62.20;27.60;;;3.10;99.90;;;;;;4972235;28;20184;-72
2021/12/21 13:44:48;;;;;;;91.82;39.58;;;3.10;99.90;;;;;;4971839;28;20031;-73
2021/12/21 13:47:19;;;;;;;46.22;20.98;;;3.10;99.90;;;;;;4972517;28;20465;-72
2021/12/21 13:50:10;;;;;;;74.78;32.58;;;3.00;99.90;;;;;;4972596;28;20030;-73
2021/12/21 13:52:52;;;;;;;75.80;31.27;;;2.90;99.90;;;;;;4972188;28;20125;-72